Time;durP1;ratioP1;P1;durP2;ratioP2;P2;SDS_P1;SDS_P2;PMS_P1;PMS_P2;Temp;Humidity;BMP_temperature;BMP_pressure;BME280_temperature;BME280_humidity;BME280_pressure;Samples;Min_cycle;Max_cycle;Signal;HPM_P1;HPM_P2
2023/07/03 00:01:40;;;;;;;15.00;11.20;;;;;;;18.95;82.01;99944.03;4954335;28;20192;-72
2023/07/03 00:04:10;;;;;;;14.93;12.20;;;;;;;18.96;81.70;99943.13;4954979;28;20839;-73
2023/07/03 00:06:36;;;;;;;16.03;12.23;;;;;;;18.98;81.19;99938.66;4944878;28;20280;-73
2023/07/03 00:09:02;;;;;;;16.30;11.97;;;;;;;19.01;80.51;99938.50;4962321;28;20219;-73
2023/07/03 00:11:27;;;;;;;15.83;12.37;;;;;;;19.03;81.03;99944.53;4953589;28;20577;-72
2023/07/03 00:13:53;;;;;;;16.33;11.93;;;;;;;19.07;80.59;99949.59;4955234;28;20231;-72
2023/07/03 00:16:18;;;;;;;13.47;11.13;;;;;;;19.09;80.53;99940.75;4952637;28;20264;-73
2023/07/03 00:18:43;;;;;;;11.27;10.03;;;;;;;19.12;80.41;99937.13;4949818;28;20224;-75
2023/07/03 00:21:09;;;;;;;11.60;9.70;;;;;;;19.13;80.51;99942.31;4961271;28;20286;-72
2023/07/03 00:23:34;;;;;;;12.57;10.13;;;;;;;19.17;80.89;99940.38;4952746;28;20225;-72
2023/07/03 00:25:59;;;;;;;12.23;10.53;;;;;;;19.18;81.08;99937.66;4949413;28;20342;-72
2023/07/03 00:28:25;;;;;;;13.23;10.07;;;;;;;19.19;81.10;99933.28;4979246;28;20808;-73
2023/07/03 00:30:51;;;;;;;12.30;10.47;;;;;;;19.19;81.18;99928.84;4950643;28;20202;-73
2023/07/03 00:33:16;;;;;;;10.70;9.57;;;;;;;19.19;81.40;99936.72;4957283;28;20205;-72
2023/07/03 00:35:41;;;;;;;11.30;10.07;;;;;;;19.21;81.88;99938.44;4948360;28;20226;-72
2023/07/03 00:38:06;;;;;;;11.00;9.30;;;;;;;19.20;81.97;99940.22;4949602;28;20277;-73
2023/07/03 00:40:32;;;;;;;14.87;11.90;;;;;;;19.18;81.91;99939.44;4952200;28;20221;-73
2023/07/03 00:42:58;;;;;;;13.07;11.03;;;;;;;19.16;81.91;99936.03;4960490;28;20200;-72
2023/07/03 00:45:23;;;;;;;14.63;11.80;;;;;;;19.12;81.97;99929.25;4957977;28;20239;-73
2023/07/03 00:47:49;;;;;;;13.13;10.67;;;;;;;19.11;81.96;99935.41;4964573;28;20901;-72
2023/07/03 00:50:15;;;;;;;12.17;10.77;;;;;;;19.10;82.28;99925.84;4952403;28;20698;-72
2023/07/03 00:52:41;;;;;;;11.67;10.47;;;;;;;19.09;82.67;99935.50;4949768;28;20197;-72
2023/07/03 00:55:10;;;;;;;12.50;10.27;;;;;;;19.12;83.34;99940.59;4947584;28;20218;-72
2023/07/03 00:57:35;;;;;;;13.60;10.70;;;;;;;19.13;83.32;99939.69;4945321;28;20257;-73
2023/07/03 01:00:01;;;;;;;12.67;11.10;;;;;;;19.13;83.16;99938.81;4947357;28;20643;-72
2023/07/03 01:02:38;;;;;;;12.57;10.47;;;;;;;19.12;82.76;99931.88;4950107;28;20191;-72
2023/07/03 01:05:19;;;;;;;11.50;10.13;;;;;;;19.15;82.65;99937.81;4960462;28;20221;-73
2023/07/03 01:07:45;;;;;;;12.40;10.87;;;;;;;19.16;82.94;99936.88;4981993;28;20194;-72
2023/07/03 01:10:30;;;;;;;10.40;9.40;;;;;;;19.18;82.58;99936.81;4946256;28;20236;-73
2023/07/03 01:13:00;;;;;;;11.27;9.70;;;;;;;19.18;82.76;99931.56;4958284;28;20670;-72
2023/07/03 01:15:28;;;;;;;14.10;11.27;;;;;;;19.20;82.31;99937.59;4946154;28;20276;-73
2023/07/03 01:17:56;;;;;;;12.57;10.80;;;;;;;19.20;82.31;99932.34;4959004;28;20194;-72
2023/07/03 01:20:24;;;;;;;11.83;10.23;;;;;;;19.21;82.78;99934.00;4947401;28;20217;-73
2023/07/03 01:23:20;;;;;;;12.20;11.00;;;;;;;19.24;83.09;99935.66;4943506;28;20197;-73
2023/07/03 01:25:48;;;;;;;11.27;10.07;;;;;;;19.24;83.62;99935.66;4962098;28;20264;-72
2023/07/03 01:28:17;;;;;;;12.60;10.73;;;;;;;19.24;83.49;99930.41;4939770;28;20224;-73
2023/07/03 01:30:43;;;;;;;12.80;11.40;;;;;;;19.22;83.41;99934.88;4952627;28;20193;-73
2023/07/03 01:33:16;;;;;;;12.60;10.77;;;;;;;19.23;83.65;99931.34;4949215;28;20252;-72
2023/07/03 01:35:42;;;;;;;14.67;11.00;;;;;;;19.23;83.54;99933.97;4949845;28;20839;-73
2023/07/03 01:38:09;;;;;;;13.73;11.00;;;;;;;19.23;82.95;99944.44;4949721;28;20292;-73
2023/07/03 01:40:34;;;;;;;13.20;10.13;;;;;;;19.23;82.86;99941.81;4961546;28;20565;-72
2023/07/03 01:43:01;;;;;;;12.93;10.30;;;;;;;19.22;83.52;99935.72;4943668;28;20199;-72
2023/07/03 01:45:26;;;;;;;12.17;10.20;;;;;;;19.21;83.29;99941.88;4952423;28;20213;-73
2023/07/03 01:47:52;;;;;;;14.23;11.40;;;;;;;19.18;83.02;99931.56;4949342;28;20216;-72
2023/07/03 01:50:22;;;;;;;13.37;10.80;;;;;;;19.16;82.90;99942.13;4946407;28;20843;-72
2023/07/03 01:53:13;;;;;;;13.23;10.87;;;;;;;19.17;82.95;99935.94;4973671;28;20219;-72
2023/07/03 01:56:08;;;;;;;15.07;11.47;;;;;;;19.14;82.35;99932.66;4945522;28;20218;-73
2023/07/03 01:58:44;;;;;;;14.07;10.60;;;;;;;19.13;82.64;99925.69;4954721;28;20187;-72
2023/07/03 02:01:16;;;;;;;15.47;12.30;;;;;;;19.12;81.92;99932.75;4947326;28;20214;-72
2023/07/03 02:03:47;;;;;;;12.97;11.10;;;;;;;19.14;82.30;99922.16;4949339;28;20753;-72
2023/07/03 02:06:25;;;;;;;14.20;11.07;;;;;;;19.15;82.96;99924.69;4943800;28;20309;-72
2023/07/03 02:08:52;;;;;;;16.87;11.33;;;;;;;19.15;82.76;99927.31;4957305;28;20218;-72
2023/07/03 02:11:20;;;;;;;14.97;11.83;;;;;;;19.14;82.74;99922.16;4954130;28;20220;-72
2023/07/03 02:13:45;;;;;;;15.93;11.47;;;;;;;19.14;82.12;99928.22;4952682;28;20198;-73
2023/07/03 02:16:11;;;;;;;15.37;12.10;;;;;;;19.13;82.55;99928.31;4952414;28;20279;-72
2023/07/03 02:18:36;;;;;;;17.27;12.63;;;;;;;19.12;81.74;99930.13;4947258;28;20197;-73
2023/07/03 02:21:05;;;;;;;13.33;11.53;;;;;;;19.12;81.76;99926.63;4955828;28;20685;-73
2023/07/03 02:23:31;;;;;;;18.93;12.30;;;;;;;19.15;82.37;99929.09;4958411;28;20654;-73
2023/07/03 02:25:56;;;;;;;15.67;11.90;;;;;;;19.14;81.73;99927.41;4952246;28;20312;-73
2023/07/03 02:28:22;;;;;;;15.87;12.00;;;;;;;19.14;81.61;99932.66;4951763;28;20318;-72
2023/07/03 02:30:47;;;;;;;16.93;12.60;;;;;;;19.14;81.78;99924.78;4950341;28;20191;-73
2023/07/03 02:33:12;;;;;;;17.00;12.93;;;;;;;19.14;81.65;99920.38;4952573;28;20197;-72
2023/07/03 02:35:41;;;;;;;13.13;10.97;;;;;;;19.15;81.44;99926.47;4949196;28;20709;-72
2023/07/03 02:38:06;;;;;;;13.07;10.93;;;;;;;19.13;81.67;99923.94;4960530;28;20198;-72
2023/07/03 02:40:33;;;;;;;12.30;10.50;;;;;;;19.13;81.80;99923.06;4966765;28;20197;-72
2023/07/03 02:42:59;;;;;;;21.13;12.70;;;;;;;19.13;82.54;99920.47;4964966;28;20198;-73
2023/07/03 02:45:24;;;;;;;16.23;12.10;;;;;;;19.12;82.30;99926.63;4957666;28;20228;-72
2023/07/03 02:47:49;;;;;;;14.83;12.00;;;;;;;19.11;82.14;99922.31;4954899;28;20185;-73
2023/07/03 02:50:15;;;;;;;14.07;11.93;;;;;;;19.10;82.05;99921.47;4954342;28;20305;-72
2023/07/03 02:52:40;;;;;;;15.20;11.87;;;;;;;19.10;82.02;99913.59;4955488;28;20531;-72
2023/07/03 02:55:06;;;;;;;12.97;11.67;;;;;;;19.10;82.33;99917.97;4956452;28;20639;-72
2023/07/03 02:57:32;;;;;;;14.93;10.87;;;;;;;19.10;82.40;99921.47;4951026;28;20584;-73
2023/07/03 02:59:57;;;;;;;16.53;12.37;;;;;;;19.12;82.53;99916.13;4956279;28;20194;-72
2023/07/03 03:02:22;;;;;;;15.10;11.30;;;;;;;19.10;82.45;99918.84;4960724;28;20189;-73
2023/07/03 03:04:48;;;;;;;14.67;11.93;;;;;;;19.10;82.72;99918.84;4952079;28;20196;-73
2023/07/03 03:07:13;;;;;;;11.63;10.43;;;;;;;19.10;82.37;99917.97;4952145;28;20966;-72
2023/07/03 03:09:40;;;;;;;17.47;11.83;;;;;;;19.11;82.22;99919.69;4948630;28;20739;-72
2023/07/03 03:12:06;;;;;;;11.67;10.43;;;;;;;19.11;82.71;99917.06;4981579;28;20197;-72
2023/07/03 03:14:31;;;;;;;11.30;10.10;;;;;;;19.10;82.72;99912.75;4954101;28;20750;-72
2023/07/03 03:16:57;;;;;;;11.23;10.03;;;;;;;19.11;82.63;99914.44;4961160;28;20321;-72
2023/07/03 03:19:22;;;;;;;14.73;11.07;;;;;;;19.10;82.78;99912.75;4951914;28;20247;-73
2023/07/03 03:21:49;;;;;;;11.83;10.40;;;;;;;19.10;83.09;99913.59;4961611;28;20568;-73
2023/07/03 03:24:16;;;;;;;16.20;12.17;;;;;;;19.09;83.14;99921.53;4947179;28;20226;-72
2023/07/03 03:26:41;;;;;;;14.93;11.63;;;;;;;19.09;82.68;99921.53;4952331;28;20272;-72
2023/07/03 03:29:06;;;;;;;12.53;10.80;;;;;;;19.08;83.07;99911.97;4959123;28;20228;-73
2023/07/03 03:31:32;;;;;;;13.23;10.50;;;;;;;19.07;83.04;99912.88;4949554;28;20268;-72
2023/07/03 03:33:57;;;;;;;12.97;10.50;;;;;;;19.07;82.99;99915.50;4954869;28;20287;-73
2023/07/03 03:36:22;;;;;;;13.20;10.23;;;;;;;19.07;83.31;99924.25;4948799;28;20234;-72
2023/07/03 03:38:47;;;;;;;13.80;10.33;;;;;;;19.08;83.40;99925.06;4962474;28;20276;-72
2023/07/03 03:41:13;;;;;;;13.60;10.03;;;;;;;19.07;83.24;99929.47;4961530;28;20203;-72
2023/07/03 03:43:38;;;;;;;12.27;10.30;;;;;;;19.08;82.91;99930.31;4953308;28;20193;-72
2023/07/03 03:46:03;;;;;;;10.73;9.23;;;;;;;19.08;82.87;99930.31;4959321;28;20953;-72
2023/07/03 03:48:30;;;;;;;11.27;9.20;;;;;;;19.09;83.27;99932.88;4964487;28;20640;-72
2023/07/03 03:50:56;;;;;;;12.03;9.93;;;;;;;19.11;83.02;99930.16;4962631;28;20281;-73
2023/07/03 03:53:22;;;;;;;10.83;8.60;;;;;;;19.13;83.23;99936.19;4987020;28;20649;-73
2023/07/03 03:55:51;;;;;;;11.23;9.53;;;;;;;19.14;83.22;99941.34;4952002;28;20221;-73
2023/07/03 03:58:18;;;;;;;12.47;10.10;;;;;;;19.13;83.06;99928.31;4954356;28;20206;-72
2023/07/03 04:00:44;;;;;;;10.87;9.43;;;;;;;19.15;83.45;99935.19;4982321;28;20680;-72
2023/07/03 04:03:10;;;;;;;11.83;9.70;;;;;;;19.17;83.72;99941.19;4948809;28;20223;-72
2023/07/03 04:05:35;;;;;;;12.87;9.83;;;;;;;19.18;83.61;99940.28;4949560;28;20292;-73
2023/07/03 04:08:01;;;;;;;11.17;9.47;;;;;;;19.21;83.79;99947.13;4957554;28;20628;-72
2023/07/03 04:10:26;;;;;;;12.30;10.17;;;;;;;19.21;83.59;99943.69;4968251;28;20217;-73
2023/07/03 04:12:51;;;;;;;12.80;10.63;;;;;;;19.23;83.74;99954.94;4946700;28;20195;-72
2023/07/03 04:15:17;;;;;;;14.70;10.50;;;;;;;19.22;83.98;99953.25;4948964;28;20224;-72
2023/07/03 04:17:42;;;;;;;11.60;9.57;;;;;;;19.21;84.39;99948.91;4948778;28;20188;-72
2023/07/03 04:20:13;;;;;;;11.70;10.13;;;;;;;19.21;84.29;99956.78;4957929;28;20930;-72
2023/07/03 04:22:39;;;;;;;11.60;10.10;;;;;;;19.20;84.20;99955.97;4958110;28;20221;-73
2023/07/03 04:25:05;;;;;;;12.03;9.57;;;;;;;19.19;84.63;99955.09;4950331;28;20217;-72
2023/07/03 04:27:31;;;;;;;11.07;9.93;;;;;;;19.21;84.59;99964.66;4966856;28;20211;-72
2023/07/03 04:29:56;;;;;;;14.93;10.50;;;;;;;19.22;85.46;99954.06;4946385;28;20218;-72
2023/07/03 04:32:21;;;;;;;15.40;11.70;;;;;;;19.21;85.52;99969.91;4951855;28;20196;-72
2023/07/03 04:34:46;;;;;;;14.13;10.77;;;;;;;19.19;85.19;99964.75;4948646;28;20251;-73
2023/07/03 04:37:13;;;;;;;12.47;11.10;;;;;;;19.19;85.30;99962.13;4951205;28;20671;-72
2023/07/03 04:39:38;;;;;;;13.40;10.80;;;;;;;19.21;85.27;99954.16;4953809;28;20195;-72
2023/07/03 04:42:04;;;;;;;12.63;9.77;;;;;;;19.23;85.44;99963.66;4956381;28;20200;-72
2023/07/03 04:44:29;;;;;;;12.73;10.30;;;;;;;19.27;85.59;99961.75;4961918;28;20258;-72
2023/07/03 04:46:58;;;;;;;14.23;9.97;;;;;;;19.29;85.31;99970.34;4947031;28;20206;-72
2023/07/03 04:49:26;;;;;;;14.00;10.63;;;;;;;19.30;85.04;99962.44;4945572;28;20236;-72
2023/07/03 04:51:52;;;;;;;12.57;10.07;;;;;;;19.34;85.01;99971.84;4946830;28;20191;-72
2023/07/03 04:54:19;;;;;;;11.87;9.57;;;;;;;19.39;85.28;99981.25;4953928;28;20315;-72
2023/07/03 04:56:44;;;;;;;13.93;10.37;;;;;;;19.43;84.98;99974.91;4946474;28;20220;-72
2023/07/03 04:59:10;;;;;;;10.93;9.73;;;;;;;19.46;85.17;99977.38;4947141;28;20277;-72
2023/07/03 05:01:36;;;;;;;11.37;9.67;;;;;;;19.49;85.33;99980.69;4977402;28;20812;-72
2023/07/03 05:04:01;;;;;;;11.20;9.33;;;;;;;19.52;85.77;99986.72;4945145;28;20208;-73
2023/07/03 05:06:27;;;;;;;13.20;10.87;;;;;;;19.55;85.83;99989.19;4947771;28;20214;-72
2023/07/03 05:08:52;;;;;;;12.53;10.03;;;;;;;19.55;85.86;99984.78;4947725;28;20218;-73
2023/07/03 05:11:18;;;;;;;14.13;10.50;;;;;;;19.57;86.16;99990.81;4947592;28;20203;-73
2023/07/03 05:13:43;;;;;;;15.07;10.93;;;;;;;19.59;86.33;99993.34;4959721;28;20242;-74
2023/07/03 05:16:08;;;;;;;11.00;9.57;;;;;;;19.59;86.07;99995.97;4964022;28;20679;-73
2023/07/03 05:18:34;;;;;;;9.63;8.23;;;;;;;19.62;85.97;99993.19;4951977;28;20193;-74
2023/07/03 05:21:00;;;;;;;13.73;9.87;;;;;;;19.64;86.65;100004.47;4983759;28;20226;-73
2023/07/03 05:23:25;;;;;;;12.03;9.50;;;;;;;19.66;86.57;100002.59;4948770;28;20600;-73
2023/07/03 05:25:51;;;;;;;12.13;10.13;;;;;;;19.68;86.45;100008.63;4945682;28;20217;-74
2023/07/03 05:28:16;;;;;;;11.60;9.33;;;;;;;19.69;86.32;100006.84;4945839;28;20248;-73
2023/07/03 05:30:42;;;;;;;12.63;9.83;;;;;;;19.68;86.16;100008.63;4946591;28;20225;-73
2023/07/03 05:33:08;;;;;;;16.43;10.07;;;;;;;19.73;85.72;100011.00;4951730;28;20665;-73
2023/07/03 05:35:33;;;;;;;12.50;9.67;;;;;;;19.77;86.00;100007.31;4943276;28;20225;-74
2023/07/03 05:38:00;;;;;;;13.30;9.93;;;;;;;19.84;86.12;100021.81;4950529;28;20200;-74
2023/07/03 05:40:27;;;;;;;11.53;8.93;;;;;;;19.89;86.43;100019.84;4947232;28;20195;-73
2023/07/03 05:42:53;;;;;;;11.40;9.53;;;;;;;19.95;86.28;100010.78;4952642;28;21387;-73
2023/07/03 05:45:18;;;;;;;10.30;8.70;;;;;;;20.03;86.20;100013.00;4952866;28;20215;-73
2023/07/03 05:47:43;;;;;;;13.63;9.83;;;;;;;20.12;85.81;100011.66;4953464;28;20190;-73
2023/07/03 05:50:09;;;;;;;10.63;9.27;;;;;;;20.21;85.35;100027.78;4977713;28;20272;-73
2023/07/03 05:52:36;;;;;;;10.70;8.60;;;;;;;20.30;84.62;100026.44;4955549;28;20198;-73
2023/07/03 05:55:01;;;;;;;9.57;8.53;;;;;;;20.40;84.43;100032.06;4941728;28;20710;-73
2023/07/03 05:57:26;;;;;;;13.43;9.20;;;;;;;20.45;84.06;100029.19;4940216;28;20195;-73
2023/07/03 05:59:53;;;;;;;11.53;8.97;;;;;;;20.51;83.19;100036.72;4935733;28;20484;-73
2023/07/03 06:02:19;;;;;;;14.33;9.93;;;;;;;20.57;82.91;100041.66;4947498;28;20194;-73
2023/07/03 06:04:45;;;;;;;12.13;9.03;;;;;;;20.66;82.37;100042.91;4944891;28;20202;-73
2023/07/03 06:07:10;;;;;;;13.00;9.40;;;;;;;20.73;81.89;100051.31;4939978;28;20196;-73
2023/07/03 06:09:37;;;;;;;10.90;8.97;;;;;;;20.76;81.10;100043.28;4957488;28;20222;-74
2023/07/03 06:12:03;;;;;;;12.77;9.10;;;;;;;20.82;81.10;100062.22;4951166;29;20353;-74
2023/07/03 06:14:30;;;;;;;15.07;9.67;;;;;;;20.83;79.03;100063.91;4950373;28;20195;-73
2023/07/03 06:16:56;;;;;;;13.90;9.73;;;;;;;20.89;78.84;100064.47;4948342;28;20214;-74
2023/07/03 06:19:21;;;;;;;10.80;8.40;;;;;;;20.93;78.29;100071.28;4963335;28;20201;-73
2023/07/03 06:21:47;;;;;;;13.60;8.90;;;;;;;21.00;78.77;100073.47;4950867;28;20183;-73
2023/07/03 06:24:13;;;;;;;14.07;8.77;;;;;;;21.01;77.20;100071.72;4963217;28;20233;-73
2023/07/03 06:26:39;;;;;;;13.73;8.90;;;;;;;21.09;77.22;100079.19;4943233;28;20206;-74
2023/07/03 06:29:09;;;;;;;10.23;7.77;;;;;;;20.99;74.78;100078.84;4947468;28;20741;-74
2023/07/03 06:31:35;;;;;;;10.57;7.13;;;;;;;20.92;74.17;100088.84;4949513;28;20195;-74
2023/07/03 06:34:02;;;;;;;10.20;7.00;;;;;;;20.97;74.48;100086.78;4948356;28;20277;-72
2023/07/03 06:36:28;;;;;;;11.47;7.10;;;;;;;21.00;74.98;100084.00;4947567;28;20602;-73
2023/07/03 06:38:55;;;;;;;12.10;7.80;;;;;;;21.00;74.75;100089.25;4966669;28;20201;-74
2023/07/03 06:41:21;;;;;;;11.87;7.77;;;;;;;21.01;74.09;100103.28;4947508;28;20207;-74
2023/07/03 06:43:47;;;;;;;8.77;7.43;;;;;;;21.08;74.09;100091.47;4948498;28;20221;-73
2023/07/03 06:46:12;;;;;;;13.83;8.13;;;;;;;21.10;74.20;100092.22;4947649;28;20246;-74
2023/07/03 06:48:37;;;;;;;18.30;8.90;;;;;;;21.17;74.43;100098.84;4948701;28;20195;-73
2023/07/03 06:51:05;;;;;;;10.53;7.57;;;;;;;21.27;74.31;100098.31;4950365;28;20562;-74
2023/07/03 06:53:31;;;;;;;11.43;7.40;;;;;;;21.36;74.00;100102.22;4939398;28;20191;-73
2023/07/03 06:55:57;;;;;;;10.47;7.50;;;;;;;21.56;73.96;100106.34;4958885;28;20238;-74
2023/07/03 06:58:23;;;;;;;12.83;8.50;;;;;;;21.71;73.12;100107.25;4946912;28;20513;-74
2023/07/03 07:00:48;;;;;;;8.37;6.67;;;;;;;21.75;72.65;100106.13;4947690;28;20210;-74
2023/07/03 07:03:14;;;;;;;10.10;6.37;;;;;;;21.84;72.10;100108.25;4979746;28;20203;-72
2023/07/03 07:05:39;;;;;;;11.50;7.30;;;;;;;22.06;72.29;100107.81;4950396;29;20301;-74
2023/07/03 07:08:04;;;;;;;10.00;6.60;;;;;;;22.53;71.57;100100.59;4949249;28;20202;-73
2023/07/03 07:10:30;;;;;;;9.87;7.00;;;;;;;22.82;70.27;100105.00;4965123;28;20214;-73
2023/07/03 07:12:55;;;;;;;9.00;5.93;;;;;;;23.00;69.30;100102.97;4950597;28;20281;-74
2023/07/03 07:15:20;;;;;;;8.90;6.17;;;;;;;23.11;68.20;100110.19;4950410;28;20209;-74
2023/07/03 07:17:46;;;;;;;9.50;6.40;;;;;;;23.15;67.98;100103.75;4947304;28;20917;-74
2023/07/03 07:20:11;;;;;;;9.00;5.70;;;;;;;23.35;68.11;100104.28;4963027;28;20707;-74
2023/07/03 07:22:37;;;;;;;9.63;6.43;;;;;;;23.59;67.69;100105.31;4949496;28;20191;-74
2023/07/03 07:25:03;;;;;;;9.50;6.03;;;;;;;23.86;67.31;100100.91;4948167;28;20246;-74
2023/07/03 07:27:28;;;;;;;7.57;5.50;;;;;;;24.14;66.50;100104.31;4948758;28;20207;-74
2023/07/03 07:29:54;;;;;;;8.40;5.30;;;;;;;24.19;66.25;100094.28;4950846;28;20701;-73
2023/07/03 07:32:21;;;;;;;9.57;5.70;;;;;;;24.36;65.72;100093.09;4981987;28;20242;-74
2023/07/03 07:34:46;;;;;;;8.10;5.47;;;;;;;24.50;65.80;100100.91;4946841;28;20186;-73
2023/07/03 07:37:12;;;;;;;8.27;4.93;;;;;;;24.64;64.98;100094.66;4963868;28;20626;-74
2023/07/03 07:39:42;;;;;;;10.90;5.43;;;;;;;24.60;64.55;100092.34;4948072;28;20222;-72
2023/07/03 07:42:07;;;;;;;7.30;5.00;;;;;;;24.70;64.56;100093.41;4949161;28;20587;-72
2023/07/03 07:44:33;;;;;;;7.57;5.37;;;;;;;24.77;64.09;100099.09;4949639;28;20194;-73
2023/07/03 07:46:58;;;;;;;10.33;5.30;;;;;;;24.73;63.95;100095.00;4944969;28;20223;-73
2023/07/03 07:49:24;;;;;;;8.83;5.00;;;;;;;24.85;64.02;100090.59;4953073;28;20230;-73
2023/07/03 07:51:49;;;;;;;9.80;5.10;;;;;;;24.89;64.33;100086.78;4958588;28;20554;-74
2023/07/03 07:54:15;;;;;;;7.40;4.80;;;;;;;25.08;63.68;100078.34;4948813;28;20227;-74
2023/07/03 07:56:40;;;;;;;9.07;4.90;;;;;;;25.25;63.25;100088.53;4941941;28;20347;-74
2023/07/03 07:59:05;;;;;;;8.93;4.90;;;;;;;25.41;62.86;100095.34;4964006;28;20229;-75
2023/07/03 08:01:31;;;;;;;9.60;4.80;;;;;;;25.59;63.00;100087.00;4941080;28;20206;-74
2023/07/03 08:03:56;;;;;;;8.17;4.53;;;;;;;25.81;62.95;100091.53;4962947;28;20707;-73
2023/07/03 08:06:22;;;;;;;10.03;4.87;;;;;;;26.16;61.96;100090.66;4942630;28;20206;-74
2023/07/03 08:08:49;;;;;;;8.63;5.03;;;;;;;26.37;61.17;100087.25;4946066;28;20223;-73
2023/07/03 08:11:14;;;;;;;7.57;4.47;;;;;;;26.53;61.42;100090.38;4944563;28;20197;-74
2023/07/03 08:13:40;;;;;;;7.60;4.67;;;;;;;26.85;60.38;100087.00;4962086;28;20202;-74
2023/07/03 08:16:07;;;;;;;5.70;3.70;;;;;;;27.07;59.81;100075.47;4967981;28;20700;-76
2023/07/03 08:18:33;;;;;;;6.63;4.00;;;;;;;26.67;60.13;100080.47;4944341;28;20223;-73
2023/07/03 08:20:58;;;;;;;5.93;4.18;;;;;;;26.47;60.48;100083.75;4945011;28;20204;-74
2023/07/03 08:23:24;;;;;;;8.52;4.50;;;;;;;26.41;58.58;100076.28;4940612;28;20751;-75
2023/07/03 08:25:50;;;;;;;5.28;3.58;;;;;;;27.14;58.67;100075.78;4948533;28;20632;-74
2023/07/03 08:28:16;;;;;;;6.00;4.00;;;;;;;27.02;58.66;100082.13;4948825;29;20289;-72
2023/07/03 08:30:41;;;;;;;6.68;4.10;;;;;;;26.60;58.80;100080.97;4973774;28;20298;-76
2023/07/03 08:33:07;;;;;;;6.35;3.53;;;;;;;27.07;58.89;100090.56;4946367;28;20222;-74
2023/07/03 08:35:32;;;;;;;6.82;3.92;;;;;;;27.28;57.52;100085.28;4948717;28;20245;-73
2023/07/03 08:37:59;;;;;;;5.45;3.58;;;;;;;27.52;57.48;100085.09;4947161;28;20868;-75
2023/07/03 08:40:25;;;;;;;6.60;3.60;;;;;;;27.46;57.58;100092.72;4949131;28;20189;-74
2023/07/03 08:42:56;;;;;;;4.75;3.65;;;;;;;27.39;57.50;100087.03;4947165;28;20191;-74
2023/07/03 08:45:34;;;;;;;6.55;4.25;;;;;;;27.01;57.95;100083.91;4946642;28;20858;-74
2023/07/03 08:48:02;;;;;;;8.85;4.68;;;;;;;26.97;59.05;100077.19;4946328;28;20194;-74
2023/07/03 08:50:29;;;;;;;6.45;3.83;;;;;;;27.17;58.29;100080.00;4947416;28;20686;-74
2023/07/03 08:53:01;;;;;;;6.85;4.25;;;;;;;27.49;58.26;100079.19;4948236;28;20212;-74
2023/07/03 08:56:05;;;;;;;6.40;3.80;;;;;;;27.19;58.53;100080.72;4943896;29;20211;-74
2023/07/03 08:58:30;;;;;;;7.38;4.15;;;;;;;27.36;57.85;100074.88;4947393;28;20659;-74
2023/07/03 09:01:17;;;;;;;7.97;4.43;;;;;;;26.86;58.57;100070.09;4941802;28;20205;-74
2023/07/03 09:03:42;;;;;;;8.43;4.27;;;;;;;27.04;58.36;100078.38;4944297;28;20199;-74
2023/07/03 09:06:39;;;;;;;5.63;3.90;;;;;;;27.07;58.48;100075.47;4949987;28;20286;-74
2023/07/03 09:09:45;;;;;;;6.70;3.80;;;;;;;27.31;58.64;100073.56;4973583;28;20215;-74
2023/07/03 09:12:33;;;;;;;7.70;4.50;;;;;;;27.18;57.01;100076.38;4958501;28;20201;-74
2023/07/03 09:15:03;;;;;;;6.85;4.15;;;;;;;27.27;58.05;100078.28;4957093;28;20237;-74
2023/07/03 09:17:30;;;;;;;5.47;3.80;;;;;;;27.32;57.55;100083.22;4946559;28;20222;-74
2023/07/03 09:19:56;;;;;;;6.50;4.33;;;;;;;27.34;58.30;100091.91;4948250;28;20620;-73
2023/07/03 09:22:51;;;;;;;8.07;4.20;;;;;;;27.42;58.29;100085.97;4945153;28;20222;-73
2023/07/03 09:25:44;;;;;;;9.40;4.60;;;;;;;27.38;58.02;100091.53;4946456;28;20699;-73
2023/07/03 09:28:10;;;;;;;9.33;4.53;;;;;;;27.03;58.20;100097.09;4944938;28;20217;-74
2023/07/03 09:30:37;;;;;;;5.70;3.73;;;;;;;27.01;59.03;100105.16;4936764;28;20261;-74
2023/07/03 09:33:02;;;;;;;8.83;4.57;;;;;;;27.05;58.67;100100.47;4938413;28;20236;-74
2023/07/03 09:35:42;;;;;;;7.97;3.73;;;;;;;27.31;58.72;100108.09;4976159;28;20249;-75
2023/07/03 09:38:26;;;;;;;6.67;4.03;;;;;;;26.92;57.67;100109.41;4942464;28;20663;-76
2023/07/03 09:40:55;;;;;;;6.43;4.33;;;;;;;26.93;58.66;100116.41;4947828;28;20210;-74
2023/07/03 09:43:24;;;;;;;11.17;5.00;;;;;;;26.58;58.81;100108.59;4948602;29;20212;-74
2023/07/03 09:46:01;;;;;;;8.77;4.10;;;;;;;26.77;59.34;100122.09;4945974;28;20214;-75
2023/07/03 09:48:29;;;;;;;7.67;3.73;;;;;;;26.71;59.09;100119.09;4950152;28;20688;-75
2023/07/03 09:50:55;;;;;;;5.07;3.40;;;;;;;26.86;59.38;100107.25;4948347;28;20256;-73
2023/07/03 09:53:24;;;;;;;6.53;3.40;;;;;;;27.01;59.29;100114.97;4952966;28;20187;-74
2023/07/03 09:55:55;;;;;;;5.23;3.53;;;;;;;27.29;58.70;100118.00;4968172;28;20202;-74
2023/07/03 09:58:23;;;;;;;6.07;3.47;;;;;;;27.44;58.22;100116.75;4963281;28;20186;-74
2023/07/03 10:00:53;;;;;;;6.03;3.23;;;;;;;27.21;58.17;100118.63;4949210;28;20175;-74
2023/07/03 10:03:31;;;;;;;5.80;3.43;;;;;;;27.35;58.45;100128.97;4962284;28;20183;-74
2023/07/03 10:06:03;;;;;;;6.07;3.70;;;;;;;27.52;58.14;100126.75;4946952;29;20218;-75
2023/07/03 10:08:29;;;;;;;4.83;3.30;;;;;;;27.74;58.33;100128.47;4953901;28;20190;-75
2023/07/03 10:10:59;;;;;;;5.23;3.20;;;;;;;27.77;57.74;100141.50;4948552;28;20285;-75
2023/07/03 10:13:29;;;;;;;4.70;3.10;;;;;;;27.56;58.11;100132.66;4942524;28;20675;-74
2023/07/03 10:15:55;;;;;;;6.63;3.73;;;;;;;27.13;58.35;100137.84;4946536;28;20226;-73
2023/07/03 10:18:27;;;;;;;5.53;3.40;;;;;;;27.24;58.57;100142.31;4946108;28;20182;-75
2023/07/03 10:20:54;;;;;;;6.73;3.67;;;;;;;27.23;58.46;100132.63;4948399;28;20186;-75
2023/07/03 10:23:29;;;;;;;6.73;4.10;;;;;;;27.06;58.79;100134.03;4946206;28;20278;-75
2023/07/03 10:26:05;;;;;;;7.13;3.90;;;;;;;26.82;58.93;100144.81;4946398;28;20213;-74
2023/07/03 10:29:26;;;;;;;6.53;3.60;;;;;;;26.47;59.55;100152.75;4948326;28;20217;-74
2023/07/03 10:31:56;;;;;;;7.30;3.50;;;;;;;26.26;60.00;100152.63;4946699;28;20206;-73
2023/07/03 10:34:46;;;;;;;5.93;3.40;;;;;;;26.00;60.55;100154.56;4947013;28;20594;-74
2023/07/03 10:37:14;;;;;;;4.10;2.57;;;;;;;25.87;61.03;100160.81;4939738;28;20571;-74
2023/07/03 10:39:52;;;;;;;4.93;2.87;;;;;;;25.79;60.64;100157.88;4932275;28;20192;-74
2023/07/03 10:42:26;;;;;;;3.73;2.67;;;;;;;25.63;61.28;100162.66;4977235;28;20254;-75
2023/07/03 10:45:00;;;;;;;5.57;3.00;;;;;;;25.75;61.21;100156.44;4944024;28;20289;-74
2023/07/03 10:47:52;;;;;;;3.57;2.77;;;;;;;26.03;61.38;100154.34;4946861;28;20568;-74
2023/07/03 10:50:26;;;;;;;3.90;2.70;;;;;;;26.40;61.02;100161.31;4979862;28;20595;-75
2023/07/03 10:53:06;;;;;;;7.00;3.07;;;;;;;26.49;61.42;100157.91;4948873;28;20195;-74
2023/07/03 10:55:38;;;;;;;6.47;3.37;;;;;;;26.57;60.99;100146.72;4963673;28;20218;-74
2023/07/03 10:58:06;;;;;;;5.77;3.27;;;;;;;26.70;60.83;100155.38;4946979;28;20202;-74
2023/07/03 11:00:38;;;;;;;7.47;3.60;;;;;;;26.90;59.68;100132.59;4949508;28;20286;-74
2023/07/03 11:03:17;;;;;;;6.00;3.20;;;;;;;27.06;60.67;100139.34;4950945;28;20191;-74
2023/07/03 11:05:55;;;;;;;5.97;3.10;;;;;;;27.39;59.86;100130.41;4950939;28;20297;-75
2023/07/03 11:08:54;;;;;;;5.33;3.17;;;;;;;27.66;58.53;100126.44;4949871;28;20232;-74
2023/07/03 11:11:44;;;;;;;5.87;2.50;;;;;;;27.68;58.30;100115.72;4946905;28;20199;-75
2023/07/03 11:14:16;;;;;;;4.40;2.60;;;;;;;27.56;58.64;100111.41;4949528;28;20195;-74
2023/07/03 11:17:12;;;;;;;5.43;2.90;;;;;;;26.92;60.13;100103.28;4981301;28;20218;-75
2023/07/03 11:19:58;;;;;;;7.30;3.03;;;;;;;26.22;60.97;100103.41;4949946;28;20194;-75
2023/07/03 11:22:31;;;;;;;4.97;3.10;;;;;;;26.30;61.42;100106.31;4977823;28;20187;-74
2023/07/03 11:25:09;;;;;;;5.87;3.00;;;;;;;26.27;62.11;100103.91;4977831;28;20206;-75
2023/07/03 11:28:01;;;;;;;5.53;3.40;;;;;;;26.49;61.30;100102.19;4948920;28;20580;-73
2023/07/03 11:30:27;;;;;;;5.63;3.10;;;;;;;26.56;61.48;100091.94;4957950;28;20277;-75